createdAt,value
2023-03-29T00:01:35.558Z,8
2023-03-29T00:04:04.361Z,12
2023-03-29T00:06:34.799Z,13
2023-03-29T00:09:06.043Z,16
2023-03-29T00:11:36.197Z,16
2023-03-29T00:14:06.668Z,8
2023-03-29T00:16:36.837Z,10
2023-03-29T00:19:07.686Z,11
2023-03-29T00:21:38.273Z,8
2023-03-29T00:24:09.106Z,15
2023-03-29T00:26:39.827Z,12
2023-03-29T00:29:10.049Z,13
2023-03-29T00:31:40.894Z,16
2023-03-29T00:34:11.399Z,12
2023-03-29T00:36:41.956Z,12
2023-03-29T00:39:12.175Z,16
2023-03-29T00:41:43.306Z,12
2023-03-29T00:44:13.606Z,12
2023-03-29T00:46:43.853Z,12
2023-03-29T00:49:14.128Z,14
2023-03-29T00:51:44.314Z,16
2023-03-29T00:54:15.249Z,12
2023-03-29T00:56:45.149Z,12
2023-03-29T00:59:16.811Z,16
2023-03-29T01:01:47.433Z,13
2023-03-29T01:04:18.167Z,13
2023-03-29T01:06:48.302Z,13
2023-03-29T01:09:19.113Z,16
2023-03-29T01:11:49.304Z,16
2023-03-29T01:14:19.957Z,12
2023-03-29T01:16:49.410Z,15
2023-03-29T01:19:19.659Z,12
2023-03-29T01:21:50.514Z,13
2023-03-29T01:24:22.090Z,16
2023-03-29T01:26:52.368Z,17
2023-03-29T01:29:23.310Z,15
2023-03-29T01:31:53.975Z,12
2023-03-29T01:34:24.765Z,13
2023-03-29T01:36:55.109Z,12
2023-03-29T01:39:25.665Z,12
2023-03-29T01:41:55.963Z,13
2023-03-29T01:44:27.036Z,15
2023-03-29T01:46:57.421Z,12
2023-03-29T01:49:28.191Z,16
2023-03-29T01:51:58.752Z,12
2023-03-29T01:54:27.517Z,12
2023-03-29T01:56:58.211Z,16
2023-03-29T01:59:28.654Z,12
2023-03-29T02:01:59.127Z,15
2023-03-29T02:04:29.046Z,12
2023-03-29T02:06:59.971Z,17
2023-03-29T02:09:30.875Z,16
2023-03-29T02:12:01.079Z,16
2023-03-29T02:14:31.167Z,12
2023-03-29T02:17:01.860Z,12
2023-03-29T02:19:34.488Z,15
2023-03-29T02:22:04.977Z,16
2023-03-29T02:24:35.422Z,16
2023-03-29T02:27:06.281Z,12
2023-03-29T02:29:36.508Z,12
2023-03-29T02:32:06.728Z,15
2023-03-29T02:34:36.871Z,8
2023-03-29T02:37:07.737Z,9
2023-03-29T02:39:38.513Z,12
2023-03-29T02:42:08.695Z,11
2023-03-29T02:44:39.156Z,10
2023-03-29T02:47:09.479Z,12
2023-03-29T02:49:39.999Z,15
2023-03-29T02:52:10.376Z,12
2023-03-29T02:54:41.381Z,13
2023-03-29T02:57:11.735Z,8
2023-03-29T02:59:42.121Z,12
2023-03-29T03:02:12.433Z,12
2023-03-29T03:04:42.794Z,16
2023-03-29T03:07:13.254Z,12
2023-03-29T03:09:43.668Z,12
2023-03-29T03:12:13.925Z,16
2023-03-29T03:14:44.201Z,12
2023-03-29T03:17:15.019Z,12
2023-03-29T03:19:45.653Z,12
2023-03-29T03:22:15.865Z,15
2023-03-29T03:24:46.287Z,16
2023-03-29T03:27:16.830Z,12
2023-03-29T03:29:47.443Z,19
2023-03-29T03:32:17.802Z,16
2023-03-29T03:34:48.810Z,16
2023-03-29T03:37:19.266Z,13
2023-03-29T03:39:50.020Z,12
2023-03-29T03:42:20.197Z,9
2023-03-29T03:44:51.552Z,11
2023-03-29T03:47:21.838Z,11
2023-03-29T03:49:52.323Z,12
2023-03-29T03:52:24.541Z,12
2023-03-29T03:54:55.559Z,12
2023-03-29T03:57:25.966Z,15
2023-03-29T03:59:56.836Z,12
2023-03-29T04:02:27.874Z,16
2023-03-29T04:04:59.660Z,15
2023-03-29T04:07:31.014Z,16
2023-03-29T04:10:01.666Z,17
2023-03-29T04:12:32.188Z,12
2023-03-29T04:15:02.862Z,18
2023-03-29T04:17:33.674Z,19
2023-03-29T04:20:04.139Z,19
2023-03-29T04:22:36.257Z,20
2023-03-29T04:25:07.830Z,23
2023-03-29T04:27:38.119Z,23
2023-03-29T04:30:08.298Z,19
2023-03-29T04:32:39.013Z,17
2023-03-29T04:35:09.369Z,20
2023-03-29T04:37:40.577Z,14
2023-03-29T04:40:11.127Z,16
2023-03-29T04:42:42.290Z,20
2023-03-29T04:45:12.992Z,25
2023-03-29T04:47:43.985Z,12
2023-03-29T04:50:15.273Z,20
2023-03-29T04:52:45.540Z,16
2023-03-29T04:55:16.107Z,31
2023-03-29T04:57:46.855Z,30
2023-03-29T05:00:17.247Z,20
2023-03-29T05:02:49.074Z,19
2023-03-29T05:05:19.529Z,17
2023-03-29T05:07:49.442Z,20
2023-03-29T05:10:19.688Z,29
2023-03-29T05:12:50.227Z,20
2023-03-29T05:15:20.063Z,24
2023-03-29T05:17:53.878Z,24
2023-03-29T05:20:25.071Z,20
2023-03-29T05:22:55.209Z,20
2023-03-29T05:25:25.637Z,22
2023-03-29T05:27:55.908Z,20
2023-03-29T05:30:27.500Z,21
2023-03-29T05:32:57.724Z,21
2023-03-29T05:35:27.971Z,19
2023-03-29T05:37:57.814Z,13
2023-03-29T05:40:28.595Z,16
2023-03-29T05:43:02.847Z,18
2023-03-29T05:45:36.748Z,28
2023-03-29T05:48:07.392Z,24
2023-03-29T05:50:37.675Z,28
2023-03-29T05:53:17.325Z,17
2023-03-29T05:55:46.797Z,19
2023-03-29T05:58:16.954Z,16
2023-03-29T06:00:48.093Z,20
2023-03-29T06:05:57.426Z,24
2023-03-29T06:08:28.309Z,19
2023-03-29T06:10:58.564Z,21
2023-03-29T06:13:28.899Z,16
2023-03-29T06:15:59.388Z,21
2023-03-29T06:18:29.504Z,19
2023-03-29T06:21:00.036Z,23
2023-03-29T06:23:30.237Z,19
2023-03-29T06:26:00.702Z,24
2023-03-29T06:28:31.629Z,19
2023-03-29T06:31:03.000Z,24
2023-03-29T06:33:32.227Z,24
2023-03-29T06:36:04.125Z,24
2023-03-29T06:38:34.408Z,16
2023-03-29T06:41:05.460Z,12
2023-03-29T06:43:40.409Z,16
2023-03-29T06:46:10.836Z,25
2023-03-29T06:48:41.437Z,20
2023-03-29T06:51:11.808Z,16
2023-03-29T06:53:42.993Z,15
2023-03-29T06:56:13.440Z,12
2023-03-29T06:58:47.700Z,13
2023-03-29T07:01:17.583Z,11
2023-03-29T07:03:47.994Z,8
2023-03-29T07:06:18.166Z,17
2023-03-29T07:08:48.192Z,16
2023-03-29T07:11:17.128Z,26
2023-03-29T07:13:47.288Z,21
2023-03-29T07:16:17.659Z,15
2023-03-29T07:18:47.489Z,23
2023-03-29T07:21:16.382Z,16
2023-03-29T07:23:46.684Z,36
2023-03-29T07:26:28.524Z,24
2023-03-29T07:28:47.701Z,43
2023-03-29T07:31:18.713Z,20
2023-03-29T07:33:51.966Z,20
2023-03-29T07:36:22.628Z,12
2023-03-29T07:38:54.525Z,16
2023-03-29T07:41:23.675Z,14
2023-03-29T07:44:01.419Z,20
2023-03-29T07:46:30.614Z,16
2023-03-29T07:49:00.621Z,16
2023-03-29T07:51:30.978Z,16
2023-03-29T07:54:01.455Z,16
2023-03-29T07:56:31.620Z,12
2023-03-29T07:59:01.732Z,12
2023-03-29T08:01:32.981Z,21
2023-03-29T08:04:03.997Z,12
2023-03-29T08:06:34.266Z,12
2023-03-29T08:09:08.639Z,13
2023-03-29T08:11:38.962Z,12
2023-03-29T08:14:09.626Z,10
2023-03-29T08:16:41.851Z,12
2023-03-29T08:19:12.493Z,16
2023-03-29T08:21:44.108Z,12
2023-03-29T08:24:14.964Z,8
2023-03-29T08:26:50.498Z,8
2023-03-29T08:29:24.585Z,8
2023-03-29T08:31:59.161Z,12
2023-03-29T08:34:29.501Z,16
2023-03-29T08:36:59.606Z,11
2023-03-29T08:39:30.166Z,15
2023-03-29T08:42:00.010Z,9
2023-03-29T08:44:30.005Z,8
2023-03-29T08:47:00.655Z,8
2023-03-29T08:49:31.170Z,8
2023-03-29T08:52:05.594Z,12
2023-03-29T08:54:36.371Z,6
2023-03-29T08:57:07.617Z,12
2023-03-29T08:59:38.529Z,15
2023-03-29T09:02:17.875Z,16
2023-03-29T09:04:48.392Z,15
2023-03-29T09:07:18.904Z,12
2023-03-29T09:09:51.685Z,12
2023-03-29T09:12:23.739Z,12
2023-03-29T09:14:54.069Z,12
2023-03-29T09:17:24.791Z,16
2023-03-29T09:19:54.306Z,8
2023-03-29T09:22:28.195Z,8
2023-03-29T09:24:59.205Z,8
2023-03-29T09:27:31.400Z,8
2023-03-29T09:30:03.097Z,9
2023-03-29T09:32:33.297Z,10
2023-03-29T09:35:03.995Z,12
2023-03-29T09:37:34.611Z,8
2023-03-29T09:40:05.391Z,12
2023-03-29T09:42:35.893Z,7
2023-03-29T09:45:06.769Z,8
2023-03-29T09:47:38.863Z,4
2023-03-29T09:50:16.809Z,8
2023-03-29T09:52:40.355Z,9
2023-03-29T09:55:10.561Z,12
2023-03-29T09:57:41.086Z,12
2023-03-29T10:00:11.410Z,4
2023-03-29T10:02:42.138Z,9
2023-03-29T10:05:12.798Z,4
2023-03-29T10:07:43.203Z,4
2023-03-29T10:10:14.353Z,8
2023-03-29T10:12:45.525Z,6
2023-03-29T10:15:28.980Z,8
2023-03-29T10:17:49.576Z,4
2023-03-29T10:20:21.306Z,8
2023-03-29T10:22:53.090Z,8
2023-03-29T10:25:26.059Z,12
2023-03-29T10:27:57.921Z,8
2023-03-29T10:30:30.491Z,50
2023-03-29T10:33:02.671Z,8
2023-03-29T10:35:34.526Z,8
2023-03-29T10:38:07.121Z,12
2023-03-29T10:40:38.956Z,10
2023-03-29T10:43:10.815Z,6
2023-03-29T10:45:42.774Z,8
2023-03-29T10:48:14.330Z,8
2023-03-29T10:50:46.098Z,8
2023-03-29T10:53:17.875Z,8
2023-03-29T10:55:50.833Z,8
2023-03-29T10:58:22.693Z,8
2023-03-29T11:00:54.457Z,8
2023-03-29T11:03:26.237Z,14
2023-03-29T11:05:59.214Z,8
2023-03-29T11:08:31.948Z,14
2023-03-29T11:11:04.368Z,8
2023-03-29T11:13:39.995Z,28
2023-03-29T11:16:12.273Z,13
2023-03-29T11:18:45.664Z,16
2023-03-29T11:21:17.433Z,12
2023-03-29T11:23:49.210Z,19
2023-03-29T11:26:20.835Z,35
2023-03-29T11:31:54.272Z,4
2023-03-29T11:34:26.119Z,8
2023-03-29T11:36:57.771Z,8
2023-03-29T11:39:29.566Z,7
2023-03-29T11:42:01.487Z,8
2023-03-29T11:44:33.964Z,10
2023-03-29T11:47:23.694Z,8
2023-03-29T11:49:57.038Z,8
2023-03-29T11:52:27.975Z,9
2023-03-29T11:55:02.283Z,8
2023-03-29T11:57:36.635Z,8
2023-03-29T12:00:15.342Z,8
2023-03-29T12:02:49.015Z,8
2023-03-29T12:05:24.575Z,10
2023-03-29T12:08:00.152Z,12
2023-03-29T12:10:36.415Z,12
2023-03-29T12:13:12.358Z,8
2023-03-29T12:15:48.288Z,12
2023-03-29T12:18:27.344Z,10
2023-03-29T12:21:08.582Z,4
2023-03-29T12:26:25.618Z,12
2023-03-29T12:28:59.126Z,8
2023-03-29T12:31:28.347Z,11
2023-03-29T12:33:59.069Z,11
2023-03-29T12:36:37.311Z,6
2023-03-29T12:39:09.738Z,8
2023-03-29T12:41:43.894Z,16
2023-03-29T12:44:14.416Z,11
2023-03-29T12:46:48.118Z,8
2023-03-29T12:49:21.056Z,8
2023-03-29T12:52:01.721Z,8
2023-03-29T12:54:36.113Z,12
2023-03-29T12:57:08.656Z,8
2023-03-29T13:02:33.078Z,8
2023-03-29T13:07:49.458Z,8
2023-03-29T13:10:32.845Z,8
2023-03-29T13:13:02.271Z,11
2023-03-29T13:18:38.893Z,8
2023-03-29T13:26:45.112Z,4
2023-03-29T13:32:07.929Z,4
2023-03-29T13:34:38.822Z,12
2023-03-29T13:37:09.151Z,8
2023-03-29T13:39:44.851Z,8
2023-03-29T13:42:15.069Z,12
2023-03-29T13:44:45.561Z,11
2023-03-29T13:47:17.266Z,4
2023-03-29T13:49:50.374Z,11
2023-03-29T13:52:19.153Z,8
2023-03-29T13:54:49.154Z,11
2023-03-29T14:00:02.584Z,9
2023-03-29T14:02:33.361Z,8
2023-03-29T14:05:08.730Z,12
2023-03-29T14:07:40.843Z,12
2023-03-29T14:10:16.378Z,11
2023-03-29T14:12:48.456Z,12
2023-03-29T14:15:24.912Z,12
2023-03-29T14:17:54.984Z,11
2023-03-29T14:20:25.623Z,12
2023-03-29T14:22:55.784Z,11
2023-03-29T14:25:25.918Z,20
2023-03-29T14:27:56.563Z,13
2023-03-29T14:30:30.463Z,15
2023-03-29T14:33:01.154Z,12
2023-03-29T14:35:31.374Z,43
2023-03-29T14:38:11.260Z,20
2023-03-29T14:40:41.822Z,8
2023-03-29T14:43:12.167Z,12
2023-03-29T14:45:45.491Z,21
2023-03-29T14:48:16.727Z,11
2023-03-29T14:50:50.989Z,12
2023-03-29T14:55:59.819Z,8
2023-03-29T14:58:29.766Z,15
2023-03-29T15:03:55.042Z,12
2023-03-29T15:06:31.657Z,20
2023-03-29T15:09:06.330Z,15
2023-03-29T15:11:33.647Z,12
2023-03-29T15:14:03.649Z,19
2023-03-29T15:16:34.858Z,12
2023-03-29T15:19:06.056Z,12
2023-03-29T15:21:36.305Z,12
2023-03-29T15:24:07.843Z,17
2023-03-29T15:26:42.908Z,9
2023-03-29T15:29:13.138Z,12
2023-03-29T15:31:42.342Z,12
2023-03-29T15:34:13.720Z,9
2023-03-29T15:36:44.101Z,12
2023-03-29T15:39:17.643Z,12
2023-03-29T15:41:48.832Z,8
2023-03-29T15:44:21.342Z,9
2023-03-29T15:46:53.686Z,13
2023-03-29T15:49:25.250Z,8
2023-03-29T15:51:55.452Z,12
2023-03-29T15:54:25.880Z,8
2023-03-29T15:56:58.626Z,17
2023-03-29T15:59:32.661Z,16
2023-03-29T16:02:02.690Z,12
2023-03-29T16:04:33.011Z,8
2023-03-29T16:07:03.437Z,12
2023-03-29T16:09:35.413Z,9
2023-03-29T16:12:06.009Z,9
2023-03-29T16:14:36.280Z,12
2023-03-29T16:17:07.291Z,8
2023-03-29T16:19:39.299Z,8
2023-03-29T16:22:10.618Z,12
2023-03-29T16:24:41.101Z,9
2023-03-29T16:27:11.621Z,8
2023-03-29T16:29:42.057Z,12
2023-03-29T16:32:12.476Z,18
2023-03-29T16:34:45.263Z,8
2023-03-29T16:39:50.829Z,17
2023-03-29T16:42:23.500Z,20
2023-03-29T16:44:54.946Z,16
2023-03-29T16:47:25.865Z,12
2023-03-29T16:49:56.930Z,17
2023-03-29T16:52:36.139Z,12
2023-03-29T16:55:09.156Z,20
2023-03-29T16:57:39.614Z,24
2023-03-29T17:00:09.741Z,35
2023-03-29T17:02:40.469Z,35
2023-03-29T17:05:10.988Z,32
2023-03-29T17:07:46.511Z,33
2023-03-29T17:10:17.750Z,28
2023-03-29T17:12:49.809Z,24
2023-03-29T17:15:20.093Z,20
2023-03-29T17:17:50.244Z,16
2023-03-29T17:20:21.343Z,16
2023-03-29T17:22:51.862Z,48
2023-03-29T17:25:27.133Z,56
2023-03-29T17:27:58.176Z,51
2023-03-29T17:30:28.671Z,45
2023-03-29T17:33:00.061Z,44
2023-03-29T17:35:30.404Z,44
2023-03-29T17:38:01.136Z,48
2023-03-29T17:40:39.863Z,52
2023-03-29T17:43:09.968Z,49
2023-03-29T17:45:41.628Z,49
2023-03-29T17:48:11.735Z,49
2023-03-29T17:50:42.096Z,52
2023-03-29T17:53:12.945Z,48
2023-03-29T17:55:44.719Z,44
2023-03-29T17:58:15.226Z,52
2023-03-29T18:00:46.988Z,48
2023-03-29T18:03:16.338Z,47
2023-03-29T18:05:50.017Z,48
2023-03-29T18:08:22.100Z,52
2023-03-29T18:10:53.622Z,48
2023-03-29T18:13:24.063Z,40
2023-03-29T18:15:56.729Z,48
2023-03-29T18:18:30.546Z,41
2023-03-29T18:21:00.668Z,44
2023-03-29T18:23:34.122Z,48
2023-03-29T18:28:53.522Z,42
2023-03-29T18:31:23.151Z,38
2023-03-29T18:33:53.685Z,36
2023-03-29T18:36:35.983Z,44
2023-03-29T18:39:09.713Z,48
2023-03-29T18:44:22.235Z,52
2023-03-29T18:47:00.474Z,52
2023-03-29T18:49:31.044Z,48
2023-03-29T18:52:18.958Z,52
2023-03-29T18:54:57.864Z,52
2023-03-29T18:57:34.825Z,55
2023-03-29T19:00:06.914Z,56
2023-03-29T19:02:41.141Z,52
2023-03-29T19:05:17.364Z,56
2023-03-29T19:13:30.970Z,59
2023-03-29T19:16:06.368Z,60
2023-03-29T19:18:36.189Z,57
2023-03-29T19:21:06.001Z,59
2023-03-29T19:23:36.046Z,56
2023-03-29T19:26:10.359Z,80
2023-03-29T19:28:40.670Z,76
2023-03-29T19:31:11.034Z,75
2023-03-29T19:33:41.402Z,61
2023-03-29T19:36:11.579Z,62
2023-03-29T19:46:53.233Z,52
2023-03-29T19:58:06.027Z,51
2023-03-29T20:00:36.322Z,47
2023-03-29T20:03:06.698Z,47
2023-03-29T20:05:41.075Z,48
2023-03-29T20:08:11.142Z,48
2023-03-29T20:10:41.235Z,46
2023-03-29T20:13:27.845Z,48
2023-03-29T20:15:58.916Z,44
2023-03-29T20:18:32.462Z,41
2023-03-29T20:21:02.625Z,46
2023-03-29T20:23:32.537Z,44
2023-03-29T20:26:08.900Z,44
2023-03-29T20:28:43.079Z,48
2023-03-29T20:31:13.361Z,37
2023-03-29T20:33:43.816Z,44
2023-03-29T20:36:14.329Z,40
2023-03-29T20:38:44.717Z,44
2023-03-29T20:41:14.993Z,44
2023-03-29T20:43:45.109Z,52
2023-03-29T20:46:15.463Z,53
2023-03-29T20:48:45.887Z,56
2023-03-29T20:51:14.557Z,56
2023-03-29T20:53:45.003Z,56
2023-03-29T20:56:15.067Z,56
2023-03-29T20:58:46.044Z,53
2023-03-29T21:01:16.151Z,59
2023-03-29T21:03:48.445Z,48
2023-03-29T21:06:18.856Z,50
2023-03-29T21:08:48.934Z,48
2023-03-29T21:11:19.178Z,37
2023-03-29T21:13:50.023Z,41
2023-03-29T21:16:20.683Z,40
2023-03-29T21:21:26.429Z,36
2023-03-29T21:23:56.443Z,44
2023-03-29T21:26:32.886Z,36
2023-03-29T21:29:03.325Z,44
2023-03-29T21:31:32.117Z,44
2023-03-29T21:34:02.226Z,48
2023-03-29T21:36:33.256Z,51
2023-03-29T21:39:03.718Z,50
2023-03-29T21:41:34.241Z,48
2023-03-29T21:46:57.167Z,44
2023-03-29T21:49:27.050Z,36
2023-03-29T21:51:57.177Z,36
2023-03-29T21:54:32.957Z,40
2023-03-29T21:57:03.673Z,36
2023-03-29T21:59:34.415Z,32
2023-03-29T22:02:05.173Z,32
2023-03-29T22:04:37.319Z,37
2023-03-29T22:07:06.109Z,40
2023-03-29T22:09:36.926Z,37
2023-03-29T22:12:07.814Z,36
2023-03-29T22:14:38.341Z,43
2023-03-29T22:17:09.042Z,42
2023-03-29T22:19:40.123Z,44
2023-03-29T22:22:10.481Z,43
2023-03-29T22:24:40.478Z,45
2023-03-29T22:27:11.363Z,44
2023-03-29T22:29:47.127Z,46
2023-03-29T22:32:17.918Z,40
2023-03-29T22:34:48.078Z,44
2023-03-29T22:37:18.559Z,44
2023-03-29T22:39:54.531Z,40
2023-03-29T22:42:30.766Z,40
2023-03-29T22:45:10.393Z,32
2023-03-29T22:47:40.421Z,36
2023-03-29T22:50:11.536Z,36
2023-03-29T22:52:43.383Z,33
2023-03-29T22:55:13.224Z,32
2023-03-29T22:57:44.069Z,36
2023-03-29T23:00:14.788Z,37
2023-03-29T23:02:45.137Z,32
2023-03-29T23:05:15.588Z,36
2023-03-29T23:07:46.464Z,36
2023-03-29T23:10:17.378Z,36
2023-03-29T23:12:48.283Z,36
2023-03-29T23:15:18.868Z,39
2023-03-29T23:17:49.401Z,39
2023-03-29T23:20:32.209Z,35
2023-03-29T23:23:06.283Z,36
2023-03-29T23:25:40.970Z,39
2023-03-29T23:28:11.493Z,39
2023-03-29T23:30:41.961Z,39
2023-03-29T23:33:11.164Z,36
2023-03-29T23:35:41.691Z,36
2023-03-29T23:38:12.052Z,40
2023-03-29T23:40:42.520Z,35
2023-03-29T23:43:16.730Z,45
2023-03-29T23:45:49.037Z,38
2023-03-29T23:48:19.676Z,40
2023-03-29T23:50:50.750Z,44
2023-03-29T23:53:21.564Z,38
2023-03-29T23:55:51.794Z,38
2023-03-29T23:58:21.919Z,44
